createdAt,value
2022-10-02T00:02:12.018Z,9.97
2022-10-02T00:04:49.625Z,9.93
2022-10-02T00:07:18.704Z,9.94
2022-10-02T00:09:52.902Z,9.91
2022-10-02T00:12:23.988Z,9.83
2022-10-02T00:14:54.605Z,9.78
2022-10-02T00:17:33.756Z,9.75
2022-10-02T00:20:00.675Z,9.74
2022-10-02T00:22:41.349Z,9.73
2022-10-02T00:25:23.721Z,9.74
2022-10-02T00:28:25.208Z,9.76
2022-10-02T00:31:07.651Z,9.73
2022-10-02T00:33:59.247Z,9.70
2022-10-02T00:36:53.585Z,9.67
2022-10-02T00:39:49.249Z,9.55
2022-10-02T00:42:34.047Z,9.47
2022-10-02T00:45:29.575Z,9.42
2022-10-02T00:48:16.431Z,9.36
2022-10-02T00:51:10.705Z,9.37
2022-10-02T00:54:07.472Z,9.35
2022-10-02T00:57:02.959Z,9.35
2022-10-02T00:59:50.143Z,9.38
2022-10-02T01:02:31.991Z,9.42
2022-10-02T01:05:04.765Z,9.46
2022-10-02T01:07:31.355Z,9.50
2022-10-02T01:09:58.806Z,9.51
2022-10-02T01:12:25.172Z,9.49
2022-10-02T01:14:51.628Z,9.54
2022-10-02T01:17:24.024Z,9.50
2022-10-02T01:19:51.201Z,9.51
2022-10-02T01:22:29.630Z,9.51
2022-10-02T01:25:01.501Z,9.51
2022-10-02T01:27:27.850Z,9.55
2022-10-02T01:30:02.252Z,9.55
2022-10-02T01:32:29.300Z,9.58
2022-10-02T01:34:57.006Z,9.56
2022-10-02T01:37:28.593Z,9.57
2022-10-02T01:40:00.204Z,9.57
2022-10-02T01:42:26.651Z,9.54
2022-10-02T01:44:53.055Z,9.54
2022-10-02T01:47:26.962Z,9.53
2022-10-02T01:49:59.219Z,9.56
2022-10-02T01:52:44.852Z,9.55
2022-10-02T01:55:41.367Z,9.58
2022-10-02T01:58:45.541Z,9.44
2022-10-02T02:01:24.118Z,9.40
2022-10-02T02:04:11.566Z,9.47
2022-10-02T02:06:55.573Z,9.49
2022-10-02T02:09:49.688Z,9.53
2022-10-02T02:12:24.670Z,9.56
2022-10-02T02:15:02.752Z,9.57
2022-10-02T02:17:55.876Z,9.61
2022-10-02T02:20:31.238Z,9.67
2022-10-02T02:23:05.483Z,9.69
2022-10-02T02:25:35.174Z,9.70
2022-10-02T02:28:06.966Z,9.72
2022-10-02T02:30:36.755Z,9.73
2022-10-02T02:33:12.575Z,9.75
2022-10-02T02:35:45.713Z,9.73
2022-10-02T02:38:25.179Z,9.73
2022-10-02T02:40:51.999Z,9.70
2022-10-02T02:43:25.703Z,9.75
2022-10-02T02:45:56.590Z,9.73
2022-10-02T02:48:29.126Z,9.73
2022-10-02T02:51:01.502Z,9.72
2022-10-02T02:53:52.100Z,9.75
2022-10-02T02:56:21.639Z,9.79
2022-10-02T02:58:57.427Z,9.78
2022-10-02T03:01:24.316Z,9.76
2022-10-02T03:03:50.676Z,9.78
2022-10-02T03:06:18.358Z,9.82
2022-10-02T03:08:48.004Z,9.82
2022-10-02T03:11:29.271Z,9.85
2022-10-02T03:13:59.175Z,9.85
2022-10-02T03:16:55.631Z,9.85
2022-10-02T03:19:51.604Z,9.90
2022-10-02T03:22:31.337Z,9.95
2022-10-02T03:25:33.648Z,9.93
2022-10-02T03:28:37.402Z,9.97
2022-10-02T03:31:06.316Z,9.99
2022-10-02T03:33:36.396Z,9.96
2022-10-02T03:36:04.579Z,9.93
2022-10-02T03:38:32.919Z,9.91
2022-10-02T03:40:59.489Z,9.91
2022-10-02T03:43:30.962Z,9.92
2022-10-02T03:45:57.324Z,9.91
2022-10-02T03:48:24.597Z,9.91
2022-10-02T03:50:51.058Z,9.92
2022-10-02T03:53:20.794Z,9.90
2022-10-02T03:56:00.764Z,9.91
2022-10-02T03:58:27.087Z,9.91
2022-10-02T04:01:32.182Z,9.91
2022-10-02T04:04:17.587Z,9.90
2022-10-02T04:06:52.521Z,9.86
2022-10-02T04:09:25.528Z,9.87
2022-10-02T04:12:01.731Z,9.84
2022-10-02T04:14:44.828Z,9.82
2022-10-02T04:17:24.586Z,9.82
2022-10-02T04:20:07.303Z,9.85
2022-10-02T04:22:39.699Z,9.87
2022-10-02T04:25:13.328Z,9.83
2022-10-02T04:28:18.245Z,9.84
2022-10-02T04:30:45.117Z,9.87
2022-10-02T04:33:14.616Z,9.87
2022-10-02T04:35:57.194Z,9.89
2022-10-02T04:38:43.766Z,9.93
2022-10-02T04:41:22.737Z,9.94
2022-10-02T04:44:01.388Z,9.97
2022-10-02T04:46:40.285Z,10.00
2022-10-02T04:49:31.548Z,10.04
2022-10-02T04:52:24.219Z,10.07
2022-10-02T04:55:12.835Z,10.02
2022-10-02T04:58:01.433Z,10.02
2022-10-02T05:00:41.716Z,10.05
2022-10-02T05:03:32.653Z,10.05
2022-10-02T05:06:28.121Z,10.06
2022-10-02T05:08:57.949Z,10.05
2022-10-02T05:11:35.456Z,10.09
2022-10-02T05:14:15.243Z,10.07
2022-10-02T05:16:47.381Z,10.07
2022-10-02T05:19:38.467Z,10.05
2022-10-02T05:22:17.350Z,10.02
2022-10-02T05:24:55.266Z,9.99
2022-10-02T05:27:42.427Z,9.97
2022-10-02T05:30:19.207Z,10.00
2022-10-02T05:33:01.533Z,10.01
2022-10-02T05:35:47.131Z,10.05
2022-10-02T05:38:47.353Z,10.05
2022-10-02T05:41:22.632Z,10.02
2022-10-02T05:44:00.508Z,10.02
2022-10-02T05:46:32.728Z,10.04
2022-10-02T05:49:05.881Z,10.05
2022-10-02T05:51:55.576Z,10.02
2022-10-02T05:54:37.737Z,10.06
2022-10-02T05:57:21.678Z,10.09
2022-10-02T06:00:24.493Z,10.10
2022-10-02T06:03:28.115Z,10.13
2022-10-02T06:05:58.094Z,10.18
2022-10-02T06:08:42.746Z,10.24
2022-10-02T06:11:32.367Z,10.25
2022-10-02T06:14:07.682Z,10.25
2022-10-02T06:17:01.419Z,10.23
2022-10-02T06:19:37.273Z,10.29
2022-10-02T06:22:19.272Z,10.30
2022-10-02T06:24:53.246Z,10.33
2022-10-02T06:27:49.064Z,10.38
2022-10-02T06:30:17.695Z,10.49
2022-10-02T06:33:04.796Z,10.43
2022-10-02T06:35:36.985Z,10.44
2022-10-02T06:38:11.138Z,10.48
2022-10-02T06:40:43.112Z,10.66
2022-10-02T06:43:49.411Z,10.64
2022-10-02T06:46:38.185Z,10.72
2022-10-02T06:49:22.107Z,10.62
2022-10-02T06:52:04.088Z,10.59
2022-10-02T06:55:16.076Z,10.63
2022-10-02T06:58:05.145Z,10.64
2022-10-02T07:00:36.515Z,10.67
2022-10-02T07:03:20.508Z,10.70
2022-10-02T07:05:53.277Z,10.70
2022-10-02T07:08:47.647Z,10.72
2022-10-02T07:11:42.325Z,10.76
2022-10-02T07:14:15.163Z,10.78
2022-10-02T07:16:45.195Z,10.84
2022-10-02T07:19:27.600Z,10.84
2022-10-02T07:22:43.550Z,10.86
2022-10-02T07:25:34.609Z,11.01
2022-10-02T07:28:46.072Z,11.27
2022-10-02T07:31:41.834Z,11.43
2022-10-02T07:34:39.688Z,11.55
2022-10-02T07:37:20.014Z,11.58
2022-10-02T07:40:06.345Z,11.65
2022-10-02T07:42:54.882Z,11.30
2022-10-02T07:45:33.678Z,11.25
2022-10-02T07:48:07.968Z,11.46
2022-10-02T07:50:47.300Z,11.43
2022-10-02T07:53:25.519Z,11.67
2022-10-02T07:55:54.702Z,11.66
2022-10-02T07:58:38.964Z,11.70
2022-10-02T08:01:13.026Z,11.63
2022-10-02T08:03:46.418Z,11.79
2022-10-02T08:06:14.561Z,11.84
2022-10-02T08:09:02.694Z,11.85
2022-10-02T08:11:49.517Z,11.84
2022-10-02T08:14:34.180Z,11.74
2022-10-02T08:17:11.374Z,11.81
2022-10-02T08:19:45.664Z,11.91
2022-10-02T08:22:36.628Z,12.22
2022-10-02T08:25:20.351Z,12.07
2022-10-02T08:28:09.637Z,12.06
2022-10-02T08:30:36.867Z,12.35
2022-10-02T08:33:13.865Z,12.41
2022-10-02T08:35:57.239Z,12.62
2022-10-02T08:38:40.316Z,12.84
2022-10-02T08:41:31.640Z,13.19
2022-10-02T08:44:35.989Z,13.40
2022-10-02T08:47:24.431Z,13.28
2022-10-02T08:50:33.121Z,13.04
2022-10-02T08:53:19.749Z,13.34
2022-10-02T08:56:06.479Z,13.47
2022-10-02T08:58:51.920Z,13.42
2022-10-02T09:01:31.355Z,13.47
2022-10-02T09:04:40.788Z,13.68
2022-10-02T09:07:17.336Z,14.05
2022-10-02T09:09:47.123Z,13.89
2022-10-02T09:12:32.634Z,14.17
2022-10-02T09:15:11.139Z,14.55
2022-10-02T09:17:58.246Z,14.66
2022-10-02T09:20:41.819Z,14.51
2022-10-02T09:23:15.914Z,14.58
2022-10-02T09:26:19.310Z,14.96
2022-10-02T09:29:04.999Z,14.82
2022-10-02T09:31:56.773Z,14.75
2022-10-02T09:34:32.445Z,14.80
2022-10-02T09:37:28.622Z,14.83
2022-10-02T09:40:32.859Z,14.23
2022-10-02T09:43:43.947Z,14.67
2022-10-02T09:46:26.697Z,14.37
2022-10-02T09:49:28.360Z,14.01
2022-10-02T09:52:16.687Z,14.42
2022-10-02T09:55:11.106Z,14.87
2022-10-02T09:58:23.650Z,14.88
2022-10-02T10:01:08.824Z,15.30
2022-10-02T10:04:02.218Z,15.83
2022-10-02T10:06:32.197Z,15.42
2022-10-02T10:09:26.121Z,15.88
2022-10-02T10:12:14.781Z,16.38
2022-10-02T10:15:15.728Z,16.84
2022-10-02T10:18:08.557Z,17.46
2022-10-02T10:21:32.080Z,17.48
2022-10-02T10:24:19.946Z,16.93
2022-10-02T10:26:55.455Z,16.04
2022-10-02T10:29:39.812Z,15.86
2022-10-02T10:32:42.680Z,16.02
2022-10-02T10:35:43.132Z,16.21
2022-10-02T10:38:49.944Z,16.08
2022-10-02T10:41:44.234Z,16.45
2022-10-02T10:44:42.284Z,16.58
2022-10-02T10:47:55.487Z,16.87
2022-10-02T10:50:50.016Z,16.59
2022-10-02T10:53:24.697Z,16.45
2022-10-02T10:56:27.932Z,17.09
2022-10-02T10:59:00.742Z,16.97
2022-10-02T11:01:58.713Z,17.46
2022-10-02T11:04:57.999Z,17.76
2022-10-02T11:07:34.968Z,17.36
2022-10-02T11:10:38.332Z,17.37
2022-10-02T11:13:18.216Z,17.29
2022-10-02T11:15:57.011Z,17.58
2022-10-02T11:18:31.385Z,17.22
2022-10-02T11:21:04.280Z,17.71
2022-10-02T11:23:39.700Z,16.99
2022-10-02T11:26:15.427Z,17.14
2022-10-02T11:28:51.147Z,16.78
2022-10-02T11:31:50.961Z,16.94
2022-10-02T11:34:44.601Z,16.89
2022-10-02T11:37:34.587Z,17.56
2022-10-02T11:40:40.073Z,18.14
2022-10-02T11:43:32.764Z,18.38
2022-10-02T11:46:11.927Z,18.46
2022-10-02T11:49:08.375Z,18.10
2022-10-02T11:52:06.023Z,18.22
2022-10-02T11:54:45.967Z,18.50
2022-10-02T11:57:35.044Z,18.81
2022-10-02T12:00:30.356Z,18.63
2022-10-02T12:03:07.209Z,19.05
2022-10-02T12:05:56.148Z,18.97
2022-10-02T12:08:57.286Z,18.04
2022-10-02T12:11:53.677Z,17.68
2022-10-02T12:14:35.923Z,18.08
2022-10-02T12:17:16.969Z,17.65
2022-10-02T12:20:14.884Z,16.81
2022-10-02T12:23:34.755Z,17.69
2022-10-02T12:26:44.423Z,17.05
2022-10-02T12:29:41.271Z,16.83
2022-10-02T12:32:49.666Z,15.68
2022-10-02T12:35:35.804Z,15.39
2022-10-02T12:38:34.767Z,15.19
2022-10-02T12:41:14.834Z,14.93
2022-10-02T12:44:11.888Z,14.93
2022-10-02T12:47:07.810Z,14.47
2022-10-02T12:49:55.903Z,14.33
2022-10-02T12:52:47.472Z,13.91
2022-10-02T12:55:51.888Z,13.47
2022-10-02T12:58:27.403Z,13.24
2022-10-02T13:01:00.393Z,13.04
2022-10-02T13:04:04.239Z,12.99
2022-10-02T13:06:52.911Z,12.93
2022-10-02T13:09:49.494Z,12.93
2022-10-02T13:12:32.724Z,12.72
2022-10-02T13:15:17.109Z,12.76
2022-10-02T13:17:56.258Z,12.71
2022-10-02T13:20:38.843Z,12.54
2022-10-02T13:23:31.559Z,12.64
2022-10-02T13:26:22.384Z,12.76
2022-10-02T13:29:13.101Z,12.79
2022-10-02T13:31:54.838Z,12.57
2022-10-02T13:34:25.288Z,12.63
2022-10-02T13:37:06.206Z,12.73
2022-10-02T13:39:44.420Z,12.79
2022-10-02T13:42:19.575Z,12.81
2022-10-02T13:45:00.307Z,12.66
2022-10-02T13:47:44.614Z,12.77
2022-10-02T13:50:28.925Z,12.59
2022-10-02T13:53:15.966Z,12.73
2022-10-02T13:55:51.588Z,12.80
2022-10-02T13:58:24.489Z,12.73
2022-10-02T14:01:04.670Z,12.72
2022-10-02T14:03:34.606Z,12.86
2022-10-02T14:06:04.449Z,12.93
2022-10-02T14:08:52.521Z,12.71
2022-10-02T14:11:43.735Z,12.71
2022-10-02T14:14:40.147Z,12.48
2022-10-02T14:17:25.321Z,12.28
2022-10-02T14:20:18.584Z,12.23
2022-10-02T14:23:13.116Z,12.37
2022-10-02T14:25:57.850Z,12.22
2022-10-02T14:28:46.571Z,12.31
2022-10-02T14:31:34.708Z,12.39
2022-10-02T14:34:20.076Z,12.68
2022-10-02T14:36:52.691Z,12.94
2022-10-02T14:39:41.848Z,13.30
2022-10-02T14:42:37.172Z,12.80
2022-10-02T14:45:24.937Z,12.76
2022-10-02T14:48:12.763Z,12.66
2022-10-02T14:51:00.196Z,12.92
2022-10-02T14:53:35.835Z,13.06
2022-10-02T14:56:32.695Z,12.84
2022-10-02T14:59:11.176Z,12.81
2022-10-02T15:01:47.181Z,12.72
2022-10-02T15:04:23.897Z,12.54
2022-10-02T15:07:08.098Z,12.61
2022-10-02T15:10:09.648Z,12.62
2022-10-02T15:12:36.548Z,12.73
2022-10-02T15:15:11.751Z,12.68
2022-10-02T15:18:01.047Z,12.59
2022-10-02T15:20:55.035Z,12.40
2022-10-02T15:23:44.252Z,12.56
2022-10-02T15:26:31.064Z,12.54
2022-10-02T15:29:03.819Z,12.70
2022-10-02T15:32:03.058Z,12.60
2022-10-02T15:34:59.386Z,12.69
2022-10-02T15:37:51.126Z,12.88
2022-10-02T15:40:29.518Z,12.96
2022-10-02T15:43:40.627Z,12.88
2022-10-02T15:46:23.205Z,12.90
2022-10-02T15:49:00.422Z,12.81
2022-10-02T15:52:02.440Z,12.92
2022-10-02T15:54:50.323Z,12.99
2022-10-02T15:57:36.050Z,12.92
2022-10-02T16:00:13.792Z,12.86
2022-10-02T16:03:01.988Z,12.68
2022-10-02T16:05:47.798Z,12.72
2022-10-02T16:08:44.681Z,12.84
2022-10-02T16:11:37.753Z,12.86
2022-10-02T16:14:48.486Z,12.95
2022-10-02T16:17:52.542Z,12.83
2022-10-02T16:20:57.613Z,12.76
2022-10-02T16:23:40.559Z,12.65
2022-10-02T16:26:20.888Z,12.54
2022-10-02T16:28:52.812Z,12.50
2022-10-02T16:31:49.779Z,12.32
2022-10-02T16:34:28.299Z,12.18
2022-10-02T16:37:02.184Z,12.22
2022-10-02T16:40:02.190Z,12.16
2022-10-02T16:42:31.949Z,12.23
2022-10-02T16:45:17.098Z,12.21
2022-10-02T16:48:06.788Z,12.21
2022-10-02T16:51:05.317Z,12.10
2022-10-02T16:53:42.218Z,12.05
2022-10-02T16:56:32.169Z,11.95
2022-10-02T16:59:08.697Z,11.99
2022-10-02T17:02:18.155Z,12.13
2022-10-02T17:04:55.060Z,12.01
2022-10-02T17:07:53.326Z,11.92
2022-10-02T17:10:33.301Z,11.89
2022-10-02T17:13:14.396Z,11.93
2022-10-02T17:16:20.956Z,11.96
2022-10-02T17:18:57.002Z,11.86
2022-10-02T17:21:42.855Z,11.73
2022-10-02T17:24:31.295Z,11.64
2022-10-02T17:27:16.083Z,11.54
2022-10-02T17:29:53.495Z,11.41
2022-10-02T17:32:45.890Z,11.27
2022-10-02T17:35:16.984Z,11.39
2022-10-02T17:38:08.435Z,11.43
2022-10-02T17:40:45.674Z,11.47
2022-10-02T17:43:17.895Z,11.37
2022-10-02T17:45:52.888Z,11.42
2022-10-02T17:48:50.754Z,11.56
2022-10-02T17:51:51.788Z,11.51
2022-10-02T17:55:05.475Z,11.48
2022-10-02T17:58:00.635Z,11.48
2022-10-02T18:00:27.777Z,11.52
2022-10-02T18:03:21.778Z,11.50
2022-10-02T18:06:18.127Z,11.49
2022-10-02T18:09:21.991Z,11.52
2022-10-02T18:12:04.308Z,11.48
2022-10-02T18:14:51.123Z,11.51
2022-10-02T18:17:39.975Z,11.54
2022-10-02T18:20:36.320Z,11.33
2022-10-02T18:23:35.867Z,11.29
2022-10-02T18:26:22.490Z,11.32
2022-10-02T18:29:15.267Z,11.34
2022-10-02T18:32:17.859Z,11.26
2022-10-02T18:34:56.745Z,11.26
2022-10-02T18:37:50.684Z,11.27
2022-10-02T18:40:22.293Z,11.25
2022-10-02T18:43:12.907Z,11.27
2022-10-02T18:45:56.065Z,11.28
2022-10-02T18:48:38.272Z,11.26
2022-10-02T18:51:07.471Z,11.27
2022-10-02T18:53:36.903Z,11.23
2022-10-02T18:56:12.608Z,11.28
2022-10-02T18:58:48.831Z,11.23
2022-10-02T19:01:48.110Z,11.21
2022-10-02T19:04:38.632Z,11.19
2022-10-02T19:07:14.950Z,11.20
2022-10-02T19:09:41.997Z,11.17
2022-10-02T19:12:16.758Z,11.11
2022-10-02T19:14:46.222Z,11.08
2022-10-02T19:17:23.663Z,11.07
2022-10-02T19:19:50.172Z,11.07
2022-10-02T19:22:30.019Z,11.15
2022-10-02T19:25:05.385Z,11.15
2022-10-02T19:27:35.480Z,11.11
2022-10-02T19:30:26.600Z,11.10
2022-10-02T19:32:56.985Z,11.15
2022-10-02T19:35:34.439Z,11.19
2022-10-02T19:38:33.533Z,10.93
2022-10-02T19:41:09.551Z,10.61
2022-10-02T19:43:53.148Z,10.70
2022-10-02T19:46:29.675Z,10.92
2022-10-02T19:48:58.970Z,11.06
2022-10-02T19:51:25.810Z,10.98
2022-10-02T19:54:00.694Z,10.97
2022-10-02T19:56:35.059Z,10.97
2022-10-02T19:59:08.265Z,10.91
2022-10-02T20:01:52.307Z,10.86
2022-10-02T20:04:25.844Z,10.90
2022-10-02T20:06:56.586Z,10.99
2022-10-02T20:09:35.715Z,10.87
2022-10-02T20:12:26.851Z,10.64
2022-10-02T20:15:00.811Z,10.59
2022-10-02T20:17:27.184Z,10.58
2022-10-02T20:20:01.842Z,10.53
2022-10-02T20:22:45.250Z,10.54
2022-10-02T20:25:29.230Z,10.54
2022-10-02T20:28:25.855Z,10.47
2022-10-02T20:30:58.537Z,10.60
2022-10-02T20:33:31.546Z,10.77
2022-10-02T20:36:13.986Z,10.83
2022-10-02T20:38:43.837Z,10.85
2022-10-02T20:41:18.395Z,10.82
2022-10-02T20:43:55.518Z,10.76
2022-10-02T20:46:35.660Z,10.72
2022-10-02T20:49:23.251Z,10.69
2022-10-02T20:52:07.336Z,10.53
2022-10-02T20:54:49.230Z,10.54
2022-10-02T20:57:49.554Z,10.52
2022-10-02T21:00:23.599Z,10.50
2022-10-02T21:03:13.418Z,10.40
2022-10-02T21:06:04.886Z,10.35
2022-10-02T21:08:52.746Z,10.18
2022-10-02T21:11:28.259Z,10.04
2022-10-02T21:14:26.104Z,9.92
2022-10-02T21:17:17.083Z,9.92
2022-10-02T21:19:52.310Z,9.95
2022-10-02T21:22:44.875Z,9.88
2022-10-02T21:25:52.587Z,9.83
2022-10-02T21:28:35.270Z,9.68
2022-10-02T21:31:26.655Z,9.54
2022-10-02T21:33:59.552Z,9.47
2022-10-02T21:36:33.718Z,9.40
2022-10-02T21:39:31.303Z,9.32
2022-10-02T21:42:17.462Z,9.31
2022-10-02T21:45:04.377Z,9.35
2022-10-02T21:48:12.853Z,9.38
2022-10-02T21:50:51.029Z,9.36
2022-10-02T21:53:46.692Z,9.43
2022-10-02T21:56:52.537Z,9.36
2022-10-02T21:59:40.716Z,9.43
2022-10-02T22:02:46.112Z,9.44
2022-10-02T22:05:47.341Z,9.33
2022-10-02T22:08:32.503Z,9.14
2022-10-02T22:11:15.292Z,9.10
2022-10-02T22:13:43.709Z,9.07
2022-10-02T22:16:32.620Z,8.97
2022-10-02T22:19:19.663Z,8.94
2022-10-02T22:22:02.019Z,8.84
2022-10-02T22:24:33.740Z,8.67
2022-10-02T22:27:51.396Z,8.48
2022-10-02T22:30:25.702Z,8.47
2022-10-02T22:33:19.135Z,8.73
2022-10-02T22:35:51.722Z,8.64
2022-10-02T22:38:33.842Z,8.72
2022-10-02T22:41:09.672Z,8.65
2022-10-02T22:43:45.220Z,8.40
2022-10-02T22:46:47.770Z,8.25
2022-10-02T22:49:33.084Z,8.13
2022-10-02T22:52:12.594Z,8.00
2022-10-02T22:54:55.923Z,7.83
2022-10-02T22:57:32.375Z,7.71
2022-10-02T23:00:12.544Z,7.65
2022-10-02T23:02:50.128Z,7.61
2022-10-02T23:05:31.461Z,7.57
2022-10-02T23:08:15.028Z,7.47
2022-10-02T23:10:50.009Z,7.45
2022-10-02T23:13:42.379Z,7.38
2022-10-02T23:16:42.662Z,7.29
2022-10-02T23:19:12.555Z,7.33
2022-10-02T23:21:58.327Z,7.23
2022-10-02T23:24:30.360Z,7.19
2022-10-02T23:27:02.552Z,7.06
2022-10-02T23:29:47.184Z,6.99
2022-10-02T23:32:47.372Z,6.95
2022-10-02T23:35:19.478Z,6.89
2022-10-02T23:38:15.358Z,6.86
2022-10-02T23:41:28.196Z,6.80
2022-10-02T23:44:01.407Z,6.72
2022-10-02T23:46:35.728Z,6.70
2022-10-02T23:49:03.552Z,6.58
2022-10-02T23:51:45.057Z,6.54
2022-10-02T23:54:20.871Z,6.46
2022-10-02T23:57:11.527Z,6.58
2022-10-02T23:59:59.596Z,6.54
